createdAt,value
2018-11-21T00:01:41.718Z,10.80
2018-11-21T00:04:22.941Z,14.60
2018-11-21T00:07:04.081Z,15.90
2018-11-21T00:09:44.656Z,12.10
2018-11-21T00:12:25.670Z,9.03
2018-11-21T00:15:06.696Z,11.50
2018-11-21T00:17:48.206Z,18.77
2018-11-21T00:20:29.344Z,16.30
2018-11-21T00:23:10.873Z,16.97
2018-11-21T00:25:51.550Z,15.70
2018-11-21T00:28:32.346Z,10.50
2018-11-21T00:31:13.755Z,15.80
2018-11-21T00:33:55.235Z,11.90
2018-11-21T00:36:36.431Z,15.33
2018-11-21T00:39:17.501Z,11.33
2018-11-21T00:41:58.347Z,16.07
2018-11-21T00:44:39.377Z,12.90
2018-11-21T00:47:20.007Z,11.73
2018-11-21T00:50:00.820Z,17.37
2018-11-21T00:52:41.983Z,7.13
2018-11-21T00:55:22.748Z,14.80
2018-11-21T00:58:03.918Z,12.77
2018-11-21T01:00:44.828Z,10.80
2018-11-21T01:03:24.318Z,16.27
2018-11-21T01:06:05.707Z,12.67
2018-11-21T01:08:46.773Z,13.00
2018-11-21T01:11:27.947Z,18.00
2018-11-21T01:14:08.958Z,12.83
2018-11-21T01:16:49.502Z,13.23
2018-11-21T01:19:30.198Z,17.20
2018-11-21T01:22:11.379Z,13.80
2018-11-21T01:24:52.676Z,15.00
2018-11-21T01:27:33.959Z,15.90
2018-11-21T01:30:15.643Z,15.70
2018-11-21T01:33:33.697Z,17.63
2018-11-21T01:36:12.482Z,15.00
2018-11-21T01:39:00.113Z,14.10
2018-11-21T01:41:41.153Z,15.40
2018-11-21T01:44:21.999Z,18.27
2018-11-21T01:47:02.634Z,15.00
2018-11-21T01:49:43.475Z,8.57
2018-11-21T01:52:24.552Z,10.03
2018-11-21T01:55:04.753Z,11.27
2018-11-21T01:57:43.439Z,16.87
2018-11-21T02:00:23.923Z,16.00
2018-11-21T02:03:04.201Z,10.70
2018-11-21T02:05:44.452Z,17.03
2018-11-21T02:08:25.462Z,17.90
2018-11-21T02:11:06.507Z,18.20
2018-11-21T02:13:47.514Z,13.53
2018-11-21T02:16:28.119Z,13.27
2018-11-21T02:19:09.018Z,17.83
2018-11-21T02:21:49.531Z,8.50
2018-11-21T02:24:28.292Z,18.90
2018-11-21T02:27:08.960Z,18.63
2018-11-21T02:29:49.741Z,16.20
2018-11-21T02:32:30.039Z,10.10
2018-11-21T02:35:11.110Z,15.67
2018-11-21T02:37:52.130Z,18.90
2018-11-21T02:40:33.027Z,17.30
2018-11-21T02:43:13.457Z,18.20
2018-11-21T02:45:52.193Z,7.13
2018-11-21T02:48:32.841Z,15.27
2018-11-21T02:51:13.654Z,16.90
2018-11-21T02:53:52.469Z,15.80
2018-11-21T02:56:59.561Z,14.37
2018-11-21T02:59:39.952Z,18.70
2018-11-21T03:02:20.664Z,16.30
2018-11-21T03:05:01.135Z,20.93
2018-11-21T03:08:00.555Z,18.83
2018-11-21T03:10:41.136Z,15.10
2018-11-21T03:13:28.153Z,13.60
2018-11-21T03:16:02.519Z,16.93
2018-11-21T03:18:42.735Z,10.50
2018-11-21T03:21:23.481Z,14.47
2018-11-21T03:24:02.317Z,15.17
2018-11-21T03:29:50.059Z,19.17
2018-11-21T03:32:30.309Z,19.20
2018-11-21T03:35:10.716Z,18.10
2018-11-21T03:37:51.440Z,19.33
2018-11-21T03:40:32.041Z,19.87
2018-11-21T03:43:12.645Z,13.93
2018-11-21T03:45:53.073Z,20.33
2018-11-21T03:48:31.863Z,19.83
2018-11-21T03:51:19.507Z,14.60
2018-11-21T03:54:00.364Z,18.70
2018-11-21T03:56:41.367Z,11.63
2018-11-21T03:59:22.309Z,20.57
2018-11-21T04:02:02.737Z,16.60
2018-11-21T04:04:43.185Z,19.80
2018-11-21T04:07:23.688Z,18.83
2018-11-21T04:10:04.576Z,21.63
2018-11-21T04:12:45.205Z,14.90
2018-11-21T04:15:25.661Z,20.57
2018-11-21T04:18:06.652Z,16.97
2018-11-21T04:20:46.926Z,19.40
2018-11-21T04:23:27.820Z,21.50
2018-11-21T04:26:09.010Z,21.63
2018-11-21T04:28:50.059Z,19.50
2018-11-21T04:31:30.469Z,19.97
2018-11-21T04:34:11.637Z,17.80
2018-11-21T04:36:52.625Z,20.50
2018-11-21T04:39:33.445Z,19.30
2018-11-21T04:42:13.842Z,17.90
2018-11-21T04:44:54.474Z,21.63
2018-11-21T04:47:34.865Z,20.90
2018-11-21T04:50:13.605Z,18.70
2018-11-21T04:53:01.301Z,10.97
2018-11-21T04:55:42.401Z,20.60
2018-11-21T04:58:22.710Z,20.10
2018-11-21T05:01:03.146Z,16.13
2018-11-21T05:03:43.514Z,23.03
2018-11-21T05:06:24.040Z,21.23
2018-11-21T05:09:05.204Z,19.67
2018-11-21T05:11:45.783Z,21.70
2018-11-21T05:14:26.709Z,19.43
2018-11-21T05:17:07.118Z,10.37
2018-11-21T05:19:47.655Z,11.87
2018-11-21T05:22:28.750Z,19.00
2018-11-21T05:25:10.256Z,15.70
2018-11-21T05:27:50.616Z,20.10
2018-11-21T05:30:30.881Z,21.57
2018-11-21T05:33:11.087Z,10.30
2018-11-21T05:35:49.912Z,21.57
2018-11-21T05:38:30.200Z,21.10
2018-11-21T05:41:10.943Z,19.70
2018-11-21T05:43:51.675Z,21.10
2018-11-21T05:46:32.722Z,20.10
2018-11-21T05:49:13.428Z,21.60
2018-11-21T05:51:53.622Z,16.80
2018-11-21T05:54:34.323Z,21.50
2018-11-21T05:57:14.563Z,17.40
2018-11-21T05:59:55.587Z,10.80
2018-11-21T06:02:35.937Z,18.00
2018-11-21T06:05:16.757Z,20.10
2018-11-21T06:07:57.281Z,17.10
2018-11-21T06:10:37.461Z,15.50
2018-11-21T06:13:18.543Z,20.23
2018-11-21T06:15:59.581Z,19.73
2018-11-21T06:18:40.256Z,20.47
2018-11-21T06:21:20.693Z,20.00
2018-11-21T06:24:01.165Z,20.60
2018-11-21T06:26:39.901Z,21.07
2018-11-21T06:29:27.600Z,20.27
2018-11-21T06:32:06.382Z,19.17
2018-11-21T06:34:34.773Z,18.60
2018-11-21T06:37:15.759Z,20.13
2018-11-21T06:39:56.495Z,19.97
2018-11-21T06:42:24.756Z,21.83
2018-11-21T06:44:53.019Z,17.47
2018-11-21T06:47:21.371Z,19.90
2018-11-21T06:49:49.642Z,20.37
2018-11-21T06:52:22.096Z,20.60
2018-11-21T06:54:46.429Z,21.33
2018-11-21T06:57:14.808Z,20.57
2018-11-21T06:59:43.091Z,19.50
2018-11-21T07:02:11.341Z,19.13
2018-11-21T07:04:39.623Z,20.70
2018-11-21T07:07:07.941Z,17.20
2018-11-21T07:09:36.264Z,19.77
2018-11-21T07:12:04.777Z,21.30
2018-11-21T07:14:33.060Z,20.40
2018-11-21T07:17:01.388Z,21.10
2018-11-21T07:19:29.760Z,21.33
2018-11-21T07:21:58.068Z,16.70
2018-11-21T07:24:26.529Z,20.37
2018-11-21T07:26:54.661Z,20.07
2018-11-21T07:29:22.949Z,14.57
2018-11-21T07:31:51.222Z,17.77
2018-11-21T07:34:19.507Z,13.10
2018-11-21T07:36:48.987Z,16.60
2018-11-21T07:39:17.297Z,15.10
2018-11-21T07:41:45.588Z,16.73
2018-11-21T07:44:13.893Z,19.60
2018-11-21T07:46:42.172Z,19.83
2018-11-21T07:49:10.592Z,21.67
2018-11-21T07:51:38.869Z,17.77
2018-11-21T07:54:07.384Z,19.80
2018-11-21T07:57:17.790Z,19.27
2018-11-21T08:00:46.689Z,18.60
2018-11-21T08:03:15.367Z,18.87
2018-11-21T08:05:51.543Z,20.10
2018-11-21T08:08:54.183Z,20.60
2018-11-21T08:11:40.271Z,15.90
2018-11-21T08:14:30.543Z,19.23
2018-11-21T08:17:23.928Z,19.87
2018-11-21T08:20:26.083Z,21.90
2018-11-21T08:23:12.148Z,19.33
2018-11-21T08:25:59.611Z,20.00
2018-11-21T08:28:29.768Z,19.77
2018-11-21T08:30:58.059Z,19.87
2018-11-21T08:33:26.562Z,20.10
2018-11-21T08:35:54.821Z,17.70
2018-11-21T08:38:23.285Z,17.60
2018-11-21T08:40:51.580Z,20.13
2018-11-21T08:43:19.834Z,17.60
2018-11-21T08:45:48.204Z,12.30
2018-11-21T08:48:17.229Z,18.83
2018-11-21T08:50:45.641Z,19.97
2018-11-21T08:53:13.912Z,18.87
2018-11-21T08:55:42.245Z,20.07
2018-11-21T08:58:10.560Z,19.10
2018-11-21T09:00:38.801Z,21.90
2018-11-21T09:03:07.400Z,17.70
2018-11-21T09:05:35.665Z,20.10
2018-11-21T09:08:04.330Z,17.73
2018-11-21T09:13:00.228Z,12.07
2018-11-21T09:15:28.522Z,20.53
2018-11-21T09:17:56.793Z,19.30
2018-11-21T09:20:25.172Z,19.73
2018-11-21T09:22:54.040Z,17.80
2018-11-21T09:25:22.408Z,19.43
2018-11-21T09:27:50.736Z,18.90
2018-11-21T09:30:20.204Z,18.03
2018-11-21T09:32:49.783Z,19.43
2018-11-21T09:35:18.680Z,18.63
2018-11-21T09:37:46.951Z,13.47
2018-11-21T09:40:19.749Z,21.00
2018-11-21T09:42:49.274Z,20.07
2018-11-21T09:45:18.972Z,17.70
2018-11-21T09:47:47.238Z,20.30
2018-11-21T09:50:17.621Z,15.50
2018-11-21T09:52:50.192Z,19.53
2018-11-21T09:55:14.536Z,11.53
2018-11-21T09:57:42.784Z,15.97
2018-11-21T10:00:48.368Z,14.07
2018-11-21T10:03:18.566Z,21.17
2018-11-21T10:05:49.336Z,10.60
2018-11-21T10:08:54.824Z,17.77
2018-11-21T10:11:23.106Z,18.90
2018-11-21T10:13:51.431Z,19.30
2018-11-21T10:16:19.660Z,19.03
2018-11-21T10:18:49.597Z,19.10
2018-11-21T10:21:22.293Z,19.77
2018-11-21T10:23:50.568Z,19.40
2018-11-21T10:26:18.873Z,18.47
2018-11-21T10:28:47.807Z,20.60
2018-11-21T10:31:16.104Z,20.40
2018-11-21T10:33:44.397Z,19.57
2018-11-21T10:36:12.682Z,16.73
2018-11-21T10:38:40.938Z,20.20
2018-11-21T10:41:09.296Z,19.37
2018-11-21T10:43:37.896Z,17.63
2018-11-21T10:46:06.457Z,19.30
2018-11-21T10:48:34.783Z,16.40
2018-11-21T10:51:03.236Z,14.77
2018-11-21T10:53:31.495Z,20.27
2018-11-21T10:55:59.847Z,19.10
2018-11-21T10:58:28.228Z,10.17
2018-11-21T11:01:14.329Z,18.77
2018-11-21T11:03:50.753Z,19.57
2018-11-21T11:06:43.899Z,17.13
2018-11-21T11:09:30.802Z,20.23
2018-11-21T11:12:16.395Z,17.53
2018-11-21T11:15:02.134Z,20.17
2018-11-21T11:17:59.592Z,14.43
2018-11-21T11:20:58.130Z,12.67
2018-11-21T11:23:43.750Z,20.17
2018-11-21T11:26:28.972Z,18.20
2018-11-21T11:29:14.775Z,14.10
2018-11-21T11:32:04.987Z,13.57
2018-11-21T11:34:51.092Z,15.37
2018-11-21T11:37:38.556Z,18.10
2018-11-21T11:40:27.203Z,15.03
2018-11-21T11:43:10.693Z,15.73
2018-11-21T11:45:58.151Z,20.40
2018-11-21T11:48:35.016Z,16.17
2018-11-21T11:51:11.432Z,18.30
2018-11-21T11:54:07.629Z,20.23
2018-11-21T11:56:53.517Z,14.07
2018-11-21T11:59:32.479Z,16.60
2018-11-21T12:02:18.090Z,18.57
2018-11-21T12:05:04.095Z,18.33
2018-11-21T12:07:49.703Z,20.73
2018-11-21T12:10:36.637Z,18.10
2018-11-21T12:13:22.579Z,18.83
2018-11-21T12:16:10.038Z,16.73
2018-11-21T12:19:09.315Z,16.53
2018-11-21T12:22:08.842Z,19.27
2018-11-21T12:24:58.810Z,18.30
2018-11-21T12:27:41.096Z,20.43
2018-11-21T12:30:24.824Z,16.40
2018-11-21T12:33:17.868Z,17.47
2018-11-21T12:36:05.921Z,17.40
2018-11-21T12:39:08.373Z,20.40
2018-11-21T12:41:56.337Z,21.70
2018-11-21T12:44:46.530Z,20.23
2018-11-21T12:47:32.414Z,19.87
2018-11-21T12:50:18.104Z,18.93
2018-11-21T12:53:12.734Z,19.30
2018-11-21T12:56:00.172Z,20.33
2018-11-21T12:58:46.251Z,20.13
2018-11-21T13:01:32.292Z,21.50
2018-11-21T13:04:25.522Z,20.00
2018-11-21T13:07:06.546Z,20.23
2018-11-21T13:09:56.813Z,17.60
2018-11-21T13:12:30.676Z,18.77
2018-11-21T13:15:18.077Z,18.37
2018-11-21T13:18:17.452Z,20.90
2018-11-21T13:21:04.685Z,19.70
2018-11-21T13:23:47.784Z,16.10
2018-11-21T13:26:39.216Z,21.17
2018-11-21T13:29:29.627Z,19.40
2018-11-21T13:32:15.780Z,18.23
2018-11-21T13:34:57.526Z,18.67
2018-11-21T13:37:43.701Z,19.27
2018-11-21T13:40:29.396Z,19.93
2018-11-21T13:43:22.647Z,22.03
2018-11-21T13:46:28.292Z,20.97
2018-11-21T13:49:21.303Z,18.37
2018-11-21T13:52:11.722Z,21.60
2018-11-21T13:54:57.359Z,21.00
2018-11-21T13:57:25.700Z,19.87
2018-11-21T13:59:54.179Z,19.87
2018-11-21T14:02:22.430Z,20.93
2018-11-21T14:04:50.704Z,21.90
2018-11-21T14:07:18.993Z,22.27
2018-11-21T14:09:47.250Z,23.70
2018-11-21T14:12:15.466Z,20.87
2018-11-21T14:14:43.948Z,21.67
2018-11-21T14:17:12.192Z,19.33
2018-11-21T14:19:40.409Z,18.27
2018-11-21T14:22:08.670Z,18.47
2018-11-21T14:24:37.096Z,20.97
2018-11-21T14:27:05.394Z,21.07
2018-11-21T14:29:33.709Z,19.80
2018-11-21T14:32:01.946Z,20.30
2018-11-21T14:34:30.209Z,14.00
2018-11-21T14:36:58.459Z,20.53
2018-11-21T14:39:26.735Z,17.20
2018-11-21T14:41:54.990Z,21.03
2018-11-21T14:44:23.273Z,17.20
2018-11-21T14:46:52.738Z,16.67
2018-11-21T14:49:21.069Z,18.53
2018-11-21T14:51:49.313Z,21.77
2018-11-21T14:54:17.554Z,15.07
2018-11-21T14:56:45.825Z,22.63
2018-11-21T14:59:15.499Z,21.90
2018-11-21T15:01:43.763Z,22.43
2018-11-21T15:04:12.042Z,26.33
2018-11-21T15:06:40.309Z,12.33
2018-11-21T15:09:10.131Z,21.83
2018-11-21T15:11:38.907Z,22.00
2018-11-21T15:14:07.340Z,23.90
2018-11-21T15:16:36.954Z,23.93
2018-11-21T15:19:04.072Z,28.38
2018-11-21T15:21:32.294Z,23.17
2018-11-21T15:24:02.545Z,24.00
2018-11-21T15:26:35.168Z,24.77
2018-11-21T15:29:03.432Z,19.40
2018-11-21T15:31:31.690Z,23.10
2018-11-21T15:34:00.131Z,22.57
2018-11-21T15:36:28.939Z,22.07
2018-11-21T15:38:57.532Z,17.20
2018-11-21T15:41:26.968Z,22.13
2018-11-21T15:43:55.565Z,20.30
2018-11-21T15:46:24.006Z,16.87
2018-11-21T15:48:52.921Z,18.37
2018-11-21T15:51:21.508Z,18.80
2018-11-21T15:53:50.270Z,19.77
2018-11-21T15:56:19.140Z,14.00
2018-11-21T15:58:48.053Z,19.57
2018-11-21T16:01:16.516Z,25.60
2018-11-21T16:03:45.007Z,34.07
2018-11-21T16:06:13.629Z,20.83
2018-11-21T16:08:42.544Z,23.93
2018-11-21T16:11:11.120Z,19.70
2018-11-21T16:13:39.517Z,20.30
2018-11-21T16:16:08.476Z,21.40
2018-11-21T16:18:37.031Z,14.60
2018-11-21T16:21:05.919Z,19.50
2018-11-21T16:23:34.486Z,18.50
2018-11-21T16:26:04.470Z,18.60
2018-11-21T16:28:32.899Z,15.37
2018-11-21T16:31:01.511Z,17.23
2018-11-21T16:33:30.393Z,19.60
2018-11-21T16:35:59.241Z,17.07
2018-11-21T16:38:27.575Z,18.63
2018-11-21T16:40:56.067Z,17.23
2018-11-21T16:43:24.706Z,19.17
2018-11-21T16:45:54.903Z,17.83
2018-11-21T16:48:25.776Z,15.57
2018-11-21T16:50:54.020Z,18.13
2018-11-21T16:53:22.323Z,19.13
2018-11-21T16:59:00.545Z,8.87
2018-11-21T17:01:29.863Z,18.50
2018-11-21T17:03:58.105Z,20.60
2018-11-21T17:06:26.448Z,20.63
2018-11-21T17:12:38.056Z,12.93
2018-11-21T17:15:08.936Z,20.13
2018-11-21T17:17:37.200Z,17.50
2018-11-21T17:20:07.671Z,19.87
2018-11-21T17:22:35.932Z,17.23
2018-11-21T17:25:04.645Z,17.97
2018-11-21T17:27:32.901Z,17.00
2018-11-21T17:30:01.223Z,19.40
2018-11-21T17:32:29.477Z,16.00
2018-11-21T17:34:57.757Z,15.93
2018-11-21T17:37:26.002Z,15.47
2018-11-21T17:39:54.300Z,16.83
2018-11-21T17:42:22.533Z,17.60
2018-11-21T17:44:50.929Z,12.10
2018-11-21T17:47:19.202Z,14.70
2018-11-21T17:49:47.877Z,11.63
2018-11-21T17:52:15.700Z,17.07
2018-11-21T17:54:44.016Z,17.03
2018-11-21T17:57:12.230Z,16.53
2018-11-21T17:59:40.453Z,13.97
2018-11-21T18:02:09.052Z,14.43
2018-11-21T18:04:37.333Z,14.60
2018-11-21T18:07:05.748Z,13.37
2018-11-21T18:09:34.174Z,16.83
2018-11-21T18:12:02.482Z,17.37
2018-11-21T18:14:30.878Z,17.27
2018-11-21T18:16:59.126Z,15.87
2018-11-21T18:19:27.404Z,17.70
2018-11-21T18:21:55.685Z,18.20
2018-11-21T18:24:23.965Z,16.07
2018-11-21T18:26:52.195Z,17.90
2018-11-21T18:29:20.462Z,19.27
2018-11-21T18:31:48.733Z,18.00
2018-11-21T18:34:16.974Z,17.87
2018-11-21T18:36:45.212Z,13.57
2018-11-21T18:39:13.914Z,19.23
2018-11-21T18:41:42.153Z,18.03
2018-11-21T18:44:10.908Z,18.77
2018-11-21T18:46:39.168Z,19.07
2018-11-21T18:49:07.456Z,20.33
2018-11-21T18:51:35.684Z,19.47
2018-11-21T18:54:04.060Z,17.87
2018-11-21T18:56:48.338Z,19.73
2018-11-21T18:59:49.768Z,19.73
2018-11-21T19:02:18.018Z,20.13
2018-11-21T19:04:46.498Z,18.13
2018-11-21T19:07:14.707Z,20.63
2018-11-21T19:09:43.008Z,23.87
2018-11-21T19:12:11.321Z,20.90
2018-11-21T19:14:39.558Z,22.73
2018-11-21T19:17:08.026Z,24.10
2018-11-21T19:19:36.267Z,23.00
2018-11-21T19:22:04.591Z,22.37
2018-11-21T19:24:32.848Z,22.30
2018-11-21T19:27:01.089Z,23.23
2018-11-21T19:29:29.358Z,22.20
2018-11-21T19:31:57.619Z,22.43
2018-11-21T19:34:25.889Z,24.40
2018-11-21T19:36:54.201Z,21.10
2018-11-21T19:39:23.014Z,24.03
2018-11-21T19:41:53.596Z,23.50
2018-11-21T19:44:25.135Z,25.37
2018-11-21T19:46:53.739Z,24.57
2018-11-21T19:49:22.446Z,20.67
2018-11-21T19:51:51.127Z,23.57
2018-11-21T19:54:20.536Z,22.70
2018-11-21T19:56:50.133Z,25.57
2018-11-21T19:59:20.384Z,21.00
2018-11-21T20:01:49.023Z,24.33
2018-11-21T20:04:18.486Z,23.63
2018-11-21T20:06:46.949Z,23.47
2018-11-21T20:09:15.868Z,22.87
2018-11-21T20:11:44.699Z,24.13
2018-11-21T20:14:13.397Z,25.47
2018-11-21T20:16:42.149Z,21.10
2018-11-21T20:19:10.896Z,22.73
2018-11-21T20:21:39.417Z,25.47
2018-11-21T20:24:07.736Z,21.17
2018-11-21T20:26:36.458Z,23.60
2018-11-21T20:29:05.029Z,22.00
2018-11-21T20:31:33.261Z,22.50
2018-11-21T20:34:01.567Z,23.20
2018-11-21T20:36:29.834Z,23.00
2018-11-21T20:38:58.712Z,24.13
2018-11-21T20:41:27.487Z,24.77
2018-11-21T20:43:56.057Z,23.23
2018-11-21T20:46:24.691Z,23.40
2018-11-21T20:48:53.310Z,23.80
2018-11-21T20:51:21.688Z,23.50
2018-11-21T20:53:50.428Z,18.90
2018-11-21T20:56:19.130Z,23.13
2018-11-21T20:58:47.604Z,14.67
2018-11-21T21:01:16.403Z,24.00
2018-11-21T21:03:45.046Z,26.13
2018-11-21T21:06:13.473Z,21.10
2018-11-21T21:08:42.168Z,25.50
2018-11-21T21:11:10.697Z,24.10
2018-11-21T21:13:39.335Z,21.50
2018-11-21T21:16:07.814Z,23.00
2018-11-21T21:18:36.569Z,22.33
2018-11-21T21:21:05.184Z,23.40
2018-11-21T21:23:33.772Z,23.63
2018-11-21T21:26:02.342Z,25.57
2018-11-21T21:28:30.566Z,25.23
2018-11-21T21:30:59.079Z,22.97
2018-11-21T21:33:27.541Z,26.70
2018-11-21T21:35:55.835Z,23.10
2018-11-21T21:38:24.084Z,25.20
2018-11-21T21:40:52.472Z,13.37
2018-11-21T21:43:20.737Z,24.80
2018-11-21T21:45:48.973Z,23.60
2018-11-21T21:48:17.237Z,21.97
2018-11-21T21:50:45.519Z,25.23
2018-11-21T21:53:13.775Z,24.40
2018-11-21T21:55:42.197Z,23.60
2018-11-21T21:58:10.439Z,25.80
2018-11-21T22:00:38.694Z,23.20
2018-11-21T22:03:06.982Z,25.80
2018-11-21T22:05:35.203Z,26.60
2018-11-21T22:08:03.429Z,25.03
2018-11-21T22:10:31.685Z,22.47
2018-11-21T22:12:59.933Z,24.87
2018-11-21T22:15:32.204Z,24.87
2018-11-21T22:18:10.306Z,25.87
2018-11-21T22:20:38.555Z,24.70
2018-11-21T22:23:06.816Z,25.93
2018-11-21T22:25:35.292Z,24.57
2018-11-21T22:28:03.544Z,27.00
2018-11-21T22:30:31.761Z,24.23
2018-11-21T22:33:00.413Z,25.03
2018-11-21T22:35:30.638Z,23.77
2018-11-21T22:37:58.897Z,24.30
2018-11-21T22:40:27.320Z,24.80
2018-11-21T22:42:55.588Z,26.80
2018-11-21T22:45:24.189Z,27.90
2018-11-21T22:47:52.413Z,26.80
2018-11-21T22:50:21.842Z,26.97
2018-11-21T22:52:50.097Z,26.33
2018-11-21T22:55:18.752Z,30.40
2018-11-21T22:57:47.534Z,29.27
2018-11-21T23:00:17.481Z,27.37
2018-11-21T23:02:45.825Z,30.20
2018-11-21T23:05:14.092Z,28.47
2018-11-21T23:07:43.079Z,27.90
2018-11-21T23:10:12.419Z,26.77
2018-11-21T23:12:41.007Z,29.67
2018-11-21T23:15:10.265Z,27.07
2018-11-21T23:17:38.540Z,27.47
2018-11-21T23:20:08.577Z,27.57
2018-11-21T23:22:36.781Z,29.40
2018-11-21T23:25:05.454Z,27.80
2018-11-21T23:27:33.742Z,26.43
2018-11-21T23:30:02.035Z,28.50
2018-11-21T23:32:30.460Z,30.43
2018-11-21T23:34:58.678Z,29.83
2018-11-21T23:37:27.337Z,28.50
2018-11-21T23:39:55.565Z,30.03
2018-11-21T23:42:23.849Z,28.60
2018-11-21T23:44:52.183Z,27.00
2018-11-21T23:47:20.453Z,26.93
2018-11-21T23:49:48.753Z,28.50
2018-11-21T23:52:16.965Z,27.10
2018-11-21T23:54:45.241Z,27.90
2018-11-21T23:57:16.232Z,26.23
2018-11-21T23:59:41.722Z,26.17
